createdAt,value
2023-05-11T00:00:38.929Z,83.29
2023-05-11T00:01:43.101Z,83.19
2023-05-11T00:02:52.558Z,83.05
2023-05-11T00:03:56.332Z,82.82
2023-05-11T00:04:59.936Z,83.22
2023-05-11T00:06:02.606Z,83.21
2023-05-11T00:07:06.083Z,83.15
2023-05-11T00:08:09.263Z,82.97
2023-05-11T00:09:12.715Z,82.92
2023-05-11T00:10:16.875Z,83.00
2023-05-11T00:11:21.168Z,82.83
2023-05-11T00:12:23.510Z,83.12
2023-05-11T00:13:26.953Z,82.96
2023-05-11T00:14:29.363Z,82.80
2023-05-11T00:15:33.354Z,82.94
2023-05-11T00:16:35.817Z,82.75
2023-05-11T00:17:40.517Z,82.81
2023-05-11T00:18:42.998Z,82.89
2023-05-11T00:19:46.527Z,82.70
2023-05-11T00:20:49.483Z,82.70
2023-05-11T00:21:52.838Z,82.60
2023-05-11T00:22:55.173Z,82.47
2023-05-11T00:23:59.174Z,82.19
2023-05-11T00:25:01.685Z,82.47
2023-05-11T00:26:05.191Z,82.30
2023-05-11T00:27:07.557Z,82.67
2023-05-11T00:28:11.340Z,82.73
2023-05-11T00:29:13.725Z,82.41
2023-05-11T00:30:17.481Z,82.43
2023-05-11T00:31:21.044Z,82.44
2023-05-11T00:32:24.360Z,82.39
2023-05-11T00:33:28.014Z,82.27
2023-05-11T00:34:32.171Z,82.44
2023-05-11T00:35:34.946Z,82.51
2023-05-11T00:36:41.397Z,82.24
2023-05-11T00:37:43.852Z,82.25
2023-05-11T00:38:47.154Z,82.16
2023-05-11T00:39:49.583Z,82.63
2023-05-11T00:40:52.935Z,82.34
2023-05-11T00:41:55.866Z,82.55
2023-05-11T00:42:59.174Z,82.49
2023-05-11T00:44:01.607Z,82.33
2023-05-11T00:45:05.350Z,82.17
2023-05-11T00:46:07.936Z,82.49
2023-05-11T00:47:11.418Z,82.40
2023-05-11T00:48:14.742Z,82.38
2023-05-11T00:49:29.366Z,82.78
2023-05-11T00:50:31.794Z,82.45
2023-05-11T00:51:36.399Z,82.38
2023-05-11T00:52:38.942Z,82.47
2023-05-11T00:53:42.308Z,82.54
2023-05-11T00:54:44.818Z,82.81
2023-05-11T00:55:48.229Z,82.52
2023-05-11T00:56:50.939Z,82.43
2023-05-11T00:57:55.281Z,82.28
2023-05-11T00:58:58.156Z,82.46
2023-05-11T01:00:03.973Z,82.26
2023-05-11T01:01:06.848Z,82.60
2023-05-11T01:02:10.689Z,82.47
2023-05-11T01:03:15.059Z,82.41
2023-05-11T01:04:18.637Z,82.38
2023-05-11T01:05:22.644Z,82.55
2023-05-11T01:06:33.079Z,82.64
2023-05-11T01:07:40.922Z,82.53
2023-05-11T01:08:50.226Z,82.68
2023-05-11T01:10:00.961Z,82.79
2023-05-11T01:11:12.342Z,82.86
2023-05-11T01:12:19.853Z,82.78
2023-05-11T01:13:32.227Z,82.71
2023-05-11T01:14:39.643Z,82.67
2023-05-11T01:15:49.676Z,82.89
2023-05-11T01:16:59.460Z,82.58
2023-05-11T01:18:13.224Z,82.71
2023-05-11T01:19:24.772Z,82.88
2023-05-11T01:20:32.547Z,82.76
2023-05-11T01:21:36.060Z,82.72
2023-05-11T01:22:52.230Z,82.94
2023-05-11T01:24:21.891Z,82.93
2023-05-11T01:25:47.137Z,83.18
2023-05-11T01:27:15.815Z,83.11
2023-05-11T01:28:29.861Z,83.03
2023-05-11T01:30:17.387Z,83.10
2023-05-11T01:31:22.002Z,83.18
2023-05-11T01:32:28.602Z,83.20
2023-05-11T01:33:33.851Z,83.29
2023-05-11T01:34:39.886Z,83.19
2023-05-11T01:35:48.555Z,83.08
2023-05-11T01:36:58.713Z,83.04
2023-05-11T01:38:03.233Z,83.20
2023-05-11T01:39:11.183Z,83.25
2023-05-11T01:40:17.466Z,83.02
2023-05-11T01:41:23.533Z,83.01
2023-05-11T01:42:33.166Z,82.98
2023-05-11T01:43:38.843Z,82.84
2023-05-11T01:44:44.606Z,82.89
2023-05-11T01:45:51.517Z,82.57
2023-05-11T01:46:57.793Z,82.72
2023-05-11T01:48:05.962Z,82.80
2023-05-11T01:49:08.628Z,82.72
2023-05-11T01:50:13.145Z,82.74
2023-05-11T01:51:18.246Z,82.75
2023-05-11T01:52:24.434Z,82.89
2023-05-11T01:53:30.471Z,83.06
2023-05-11T01:54:35.069Z,82.88
2023-05-11T01:55:40.314Z,82.83
2023-05-11T01:56:46.494Z,82.85
2023-05-11T01:57:53.237Z,82.88
2023-05-11T01:58:59.168Z,82.99
2023-05-11T02:00:01.873Z,82.99
2023-05-11T02:01:08.363Z,83.17
2023-05-11T02:02:14.129Z,83.28
2023-05-11T02:03:18.124Z,83.55
2023-05-11T02:04:23.305Z,83.23
2023-05-11T02:05:30.122Z,83.38
2023-05-11T02:06:34.541Z,83.42
2023-05-11T02:07:44.453Z,83.59
2023-05-11T02:08:49.286Z,83.41
2023-05-11T02:09:55.469Z,83.39
2023-05-11T02:10:59.515Z,83.24
2023-05-11T02:12:04.424Z,83.59
2023-05-11T02:13:08.503Z,83.40
2023-05-11T02:14:12.967Z,83.74
2023-05-11T02:15:17.495Z,83.60
2023-05-11T02:16:22.025Z,83.45
2023-05-11T02:17:26.834Z,83.69
2023-05-11T02:18:31.626Z,83.63
2023-05-11T02:19:35.835Z,83.51
2023-05-11T02:20:43.254Z,83.59
2023-05-11T02:21:53.550Z,83.54
2023-05-11T02:22:58.398Z,83.95
2023-05-11T02:24:03.447Z,83.52
2023-05-11T02:25:09.165Z,83.51
2023-05-11T02:26:15.122Z,83.40
2023-05-11T02:27:18.525Z,83.77
2023-05-11T02:28:21.284Z,83.44
2023-05-11T02:29:24.774Z,83.41
2023-05-11T02:30:28.979Z,83.65
2023-05-11T02:31:37.636Z,83.53
2023-05-11T02:32:47.882Z,83.60
2023-05-11T02:33:53.678Z,83.58
2023-05-11T02:35:02.048Z,83.45
2023-05-11T02:36:08.321Z,83.58
2023-05-11T02:37:16.241Z,83.60
2023-05-11T02:38:21.273Z,83.65
2023-05-11T02:39:30.554Z,83.52
2023-05-11T02:40:36.167Z,83.62
2023-05-11T02:41:55.284Z,83.98
2023-05-11T02:43:12.682Z,83.82
2023-05-11T02:44:17.868Z,83.58
2023-05-11T02:45:21.878Z,83.81
2023-05-11T02:46:37.026Z,83.46
2023-05-11T02:47:53.314Z,83.75
2023-05-11T02:49:01.221Z,83.67
2023-05-11T02:50:07.776Z,83.73
2023-05-11T02:51:12.757Z,83.64
2023-05-11T02:52:18.722Z,83.34
2023-05-11T02:53:34.064Z,83.76
2023-05-11T02:54:40.246Z,83.50
2023-05-11T02:55:53.604Z,83.34
2023-05-11T02:56:58.020Z,83.31
2023-05-11T02:58:00.741Z,83.24
2023-05-11T02:59:05.010Z,83.18
2023-05-11T03:00:09.284Z,82.78
2023-05-11T03:01:25.302Z,83.09
2023-05-11T03:02:37.837Z,83.18
2023-05-11T03:03:44.053Z,83.12
2023-05-11T03:04:46.714Z,83.18
2023-05-11T03:05:49.996Z,83.18
2023-05-11T03:06:52.454Z,83.06
2023-05-11T03:07:59.303Z,83.05
2023-05-11T03:09:02.232Z,83.06
2023-05-11T03:10:06.349Z,82.95
2023-05-11T03:11:11.030Z,83.11
2023-05-11T03:12:15.821Z,83.09
2023-05-11T03:13:20.261Z,83.16
2023-05-11T03:14:25.253Z,82.98
2023-05-11T03:15:28.914Z,83.17
2023-05-11T03:16:33.365Z,83.26
2023-05-11T03:17:37.103Z,83.16
2023-05-11T03:18:41.511Z,83.34
2023-05-11T03:19:46.329Z,83.35
2023-05-11T03:20:51.305Z,83.19
2023-05-11T03:21:54.667Z,83.40
2023-05-11T03:22:59.011Z,83.26
2023-05-11T03:24:02.051Z,83.32
2023-05-11T03:25:08.521Z,83.30
2023-05-11T03:26:12.544Z,83.27
2023-05-11T03:27:16.359Z,83.33
2023-05-11T03:28:20.426Z,83.52
2023-05-11T03:29:26.377Z,83.56
2023-05-11T03:30:29.503Z,83.79
2023-05-11T03:31:33.304Z,83.34
2023-05-11T03:32:35.992Z,83.36
2023-05-11T03:33:39.760Z,83.50
2023-05-11T03:34:42.134Z,83.64
2023-05-11T03:35:49.492Z,83.61
2023-05-11T03:36:54.265Z,83.90
2023-05-11T03:37:58.576Z,83.78
2023-05-11T03:39:04.533Z,83.80
2023-05-11T03:40:08.657Z,84.20
2023-05-11T03:41:16.648Z,84.51
2023-05-11T03:42:21.189Z,83.89
2023-05-11T03:43:27.855Z,84.08
2023-05-11T03:44:33.148Z,83.85
2023-05-11T03:45:37.942Z,84.37
2023-05-11T03:46:44.151Z,84.04
2023-05-11T03:47:49.189Z,83.89
2023-05-11T03:48:52.914Z,84.12
2023-05-11T03:49:57.264Z,83.98
2023-05-11T03:51:01.214Z,83.88
2023-05-11T03:52:06.016Z,83.91
2023-05-11T03:53:08.768Z,83.77
2023-05-11T03:54:12.325Z,83.77
2023-05-11T03:55:16.217Z,83.79
2023-05-11T03:56:18.669Z,83.99
2023-05-11T03:57:32.289Z,83.68
2023-05-11T03:58:39.766Z,83.73
2023-05-11T03:59:43.417Z,83.79
2023-05-11T04:00:46.964Z,83.53
2023-05-11T04:01:53.119Z,83.72
2023-05-11T04:02:55.876Z,83.50
2023-05-11T04:03:59.655Z,83.61
2023-05-11T04:05:06.494Z,83.50
2023-05-11T04:06:11.097Z,83.46
2023-05-11T04:07:13.691Z,83.65
2023-05-11T04:08:17.216Z,83.41
2023-05-11T04:09:20.190Z,83.77
2023-05-11T04:10:23.632Z,83.57
2023-05-11T04:11:27.596Z,83.60
2023-05-11T04:12:30.896Z,83.78
2023-05-11T04:13:33.335Z,83.60
2023-05-11T04:14:37.382Z,83.63
2023-05-11T04:15:39.712Z,83.54
2023-05-11T04:16:43.156Z,83.58
2023-05-11T04:17:45.751Z,83.37
2023-05-11T04:18:49.203Z,83.57
2023-05-11T04:19:52.769Z,83.22
2023-05-11T04:20:56.032Z,83.74
2023-05-11T04:21:59.728Z,83.60
2023-05-11T04:23:03.862Z,83.38
2023-05-11T04:24:06.591Z,83.56
2023-05-11T04:25:10.556Z,83.90
2023-05-11T04:26:13.202Z,83.60
2023-05-11T04:27:16.783Z,83.65
2023-05-11T04:28:19.196Z,83.61
2023-05-11T04:29:22.475Z,83.64
2023-05-11T04:30:25.008Z,83.65
2023-05-11T04:31:30.444Z,83.25
2023-05-11T04:32:33.039Z,83.44
2023-05-11T04:33:36.457Z,83.56
2023-05-11T04:34:39.250Z,83.28
2023-05-11T04:35:43.244Z,83.57
2023-05-11T04:36:48.015Z,83.72
2023-05-11T04:37:52.599Z,83.67
2023-05-11T04:38:55.052Z,83.51
2023-05-11T04:39:58.334Z,83.60
2023-05-11T04:41:07.053Z,83.62
2023-05-11T04:42:12.423Z,83.44
2023-05-11T04:43:16.092Z,83.85
2023-05-11T04:44:19.419Z,83.82
2023-05-11T04:45:21.849Z,84.03
2023-05-11T04:46:25.266Z,83.86
2023-05-11T04:47:27.738Z,83.78
2023-05-11T04:48:31.165Z,84.04
2023-05-11T04:49:33.526Z,84.07
2023-05-11T04:50:38.184Z,84.23
2023-05-11T04:51:41.204Z,84.03
2023-05-11T04:52:45.106Z,84.20
2023-05-11T04:53:48.883Z,84.38
2023-05-11T04:54:53.122Z,84.65
2023-05-11T04:55:55.569Z,84.53
2023-05-11T04:56:59.734Z,84.89
2023-05-11T04:58:07.002Z,84.81
2023-05-11T04:59:10.665Z,84.87
2023-05-11T05:00:13.479Z,84.95
2023-05-11T05:01:19.698Z,85.03
2023-05-11T05:02:22.499Z,85.01
2023-05-11T05:03:25.961Z,84.48
2023-05-11T05:04:29.192Z,84.12
2023-05-11T05:05:32.550Z,83.95
2023-05-11T05:06:35.122Z,83.46
2023-05-11T05:07:38.484Z,82.88
2023-05-11T05:08:40.922Z,82.75
2023-05-11T05:09:45.703Z,82.63
2023-05-11T05:10:48.310Z,82.43
2023-05-11T05:11:51.623Z,82.32
2023-05-11T05:12:54.101Z,81.92
2023-05-11T05:13:57.895Z,81.85
2023-05-11T05:15:00.392Z,81.41
2023-05-11T05:16:03.905Z,81.27
2023-05-11T05:17:06.364Z,81.08
2023-05-11T05:18:10.600Z,80.53
2023-05-11T05:19:13.022Z,80.48
2023-05-11T05:20:16.570Z,80.61
2023-05-11T05:21:19.080Z,80.05
2023-05-11T05:22:22.562Z,79.52
2023-05-11T05:23:26.078Z,78.76
2023-05-11T05:24:28.725Z,78.02
2023-05-11T05:25:33.629Z,77.52
2023-05-11T05:26:36.787Z,76.53
2023-05-11T05:27:40.025Z,76.38
2023-05-11T05:28:42.572Z,75.82
2023-05-11T05:29:45.840Z,75.72
2023-05-11T05:31:07.510Z,76.26
2023-05-11T05:32:30.321Z,76.67
2023-05-11T05:33:32.677Z,77.23
2023-05-11T05:34:36.990Z,76.92
2023-05-11T05:35:39.493Z,76.24
2023-05-11T05:36:43.036Z,75.99
2023-05-11T05:37:45.414Z,75.82
2023-05-11T05:38:48.854Z,75.69
2023-05-11T05:39:51.262Z,74.42
2023-05-11T05:40:57.048Z,73.52
2023-05-11T05:41:59.376Z,72.43
2023-05-11T05:43:02.770Z,71.37
2023-05-11T05:44:05.775Z,70.92
2023-05-11T05:45:12.471Z,69.41
2023-05-11T05:46:16.791Z,68.79
2023-05-11T05:47:20.153Z,68.37
2023-05-11T05:48:22.556Z,68.44
2023-05-11T05:49:26.360Z,68.38
2023-05-11T05:50:28.909Z,68.53
2023-05-11T05:51:32.796Z,68.77
2023-05-11T05:52:35.319Z,68.90
2023-05-11T05:53:38.772Z,68.79
2023-05-11T05:54:41.190Z,68.39
2023-05-11T05:55:44.581Z,68.16
2023-05-11T05:56:49.346Z,67.75
2023-05-11T05:57:52.720Z,67.79
2023-05-11T05:58:55.815Z,67.57
2023-05-11T05:59:59.327Z,66.71
2023-05-11T06:01:01.953Z,65.68
2023-05-11T06:02:06.511Z,64.55
2023-05-11T06:03:08.952Z,63.90
2023-05-11T06:04:12.830Z,63.23
2023-05-11T06:05:15.361Z,62.95
2023-05-11T06:06:19.370Z,62.17
2023-05-11T06:07:21.732Z,61.89
2023-05-11T06:08:25.178Z,61.20
2023-05-11T06:09:27.771Z,60.86
2023-05-11T06:10:31.301Z,61.15
2023-05-11T06:11:34.587Z,61.09
2023-05-11T06:12:39.311Z,61.71
2023-05-11T06:13:41.727Z,62.16
2023-05-11T06:14:45.065Z,62.46
2023-05-11T06:15:47.511Z,62.09
2023-05-11T06:16:51.253Z,62.14
2023-05-11T06:17:54.612Z,62.08
2023-05-11T06:18:57.970Z,61.50
2023-05-11T06:20:01.286Z,62.26
2023-05-11T06:21:09.356Z,62.78
2023-05-11T06:22:12.147Z,63.03
2023-05-11T06:23:15.794Z,63.09
2023-05-11T06:24:18.267Z,62.78
2023-05-11T06:25:21.714Z,61.89
2023-05-11T06:26:25.389Z,61.26
2023-05-11T06:27:28.908Z,61.18
2023-05-11T06:28:33.077Z,61.04
2023-05-11T06:29:42.265Z,61.72
2023-05-11T06:30:45.671Z,61.38
2023-05-11T06:31:59.190Z,60.59
2023-05-11T06:33:01.678Z,59.19
2023-05-11T06:34:05.021Z,57.60
2023-05-11T06:35:07.947Z,56.59
2023-05-11T06:36:11.601Z,55.40
2023-05-11T06:37:20.768Z,54.41
2023-05-11T06:38:23.152Z,53.37
2023-05-11T06:39:26.583Z,52.89
2023-05-11T06:40:29.919Z,52.14
2023-05-11T06:41:33.842Z,51.46
2023-05-11T06:42:36.501Z,50.57
2023-05-11T06:43:51.059Z,50.22
2023-05-11T06:44:53.500Z,49.29
2023-05-11T06:45:57.485Z,48.80
2023-05-11T06:47:01.169Z,48.32
2023-05-11T06:48:14.982Z,47.80
2023-05-11T06:49:17.391Z,46.72
2023-05-11T06:50:21.616Z,46.29
2023-05-11T06:51:24.602Z,45.97
2023-05-11T06:52:29.011Z,47.10
2023-05-11T06:53:31.411Z,46.59
2023-05-11T06:54:35.405Z,46.58
2023-05-11T06:55:38.186Z,46.62
2023-05-11T06:56:41.533Z,45.81
2023-05-11T06:57:44.006Z,45.72
2023-05-11T06:58:47.383Z,44.34
2023-05-11T06:59:51.658Z,44.16
2023-05-11T07:00:59.356Z,43.59
2023-05-11T07:02:02.664Z,43.17
2023-05-11T07:03:05.406Z,43.38
2023-05-11T07:04:08.911Z,44.08
2023-05-11T07:05:12.281Z,43.53
2023-05-11T07:06:15.742Z,43.46
2023-05-11T07:07:28.145Z,43.01
2023-05-11T07:08:32.722Z,44.43
2023-05-11T07:09:36.140Z,43.97
2023-05-11T07:10:38.552Z,43.53
2023-05-11T07:11:42.132Z,43.28
2023-05-11T07:12:44.590Z,43.57
2023-05-11T07:13:48.647Z,43.21
2023-05-11T07:14:52.380Z,43.24
2023-05-11T07:15:57.617Z,41.75
2023-05-11T07:17:00.461Z,41.54
2023-05-11T07:18:04.118Z,41.64
2023-05-11T07:19:08.618Z,42.48
2023-05-11T07:20:12.574Z,42.49
2023-05-11T07:21:16.576Z,42.61
2023-05-11T07:22:33.860Z,42.43
2023-05-11T07:23:37.209Z,43.22
2023-05-11T07:24:40.665Z,43.00
2023-05-11T07:25:44.948Z,43.90
2023-05-11T07:26:49.288Z,45.12
2023-05-11T07:27:51.641Z,46.28
2023-05-11T07:28:54.925Z,47.68
2023-05-11T07:29:58.653Z,48.00
2023-05-11T07:31:02.001Z,46.54
2023-05-11T07:32:04.827Z,45.47
2023-05-11T07:33:08.244Z,44.39
2023-05-11T07:34:10.577Z,43.05
2023-05-11T07:35:15.378Z,42.89
2023-05-11T07:36:28.135Z,42.68
2023-05-11T07:37:30.647Z,41.51
2023-05-11T07:38:34.115Z,40.44
2023-05-11T07:39:45.407Z,40.59
2023-05-11T07:40:48.164Z,40.07
2023-05-11T07:41:51.572Z,38.70
2023-05-11T07:42:54.289Z,39.64
2023-05-11T07:43:57.772Z,39.11
2023-05-11T07:45:01.520Z,39.09
2023-05-11T07:46:05.090Z,39.01
2023-05-11T07:47:10.598Z,39.62
2023-05-11T07:48:13.282Z,40.34
2023-05-11T07:49:25.141Z,40.51
2023-05-11T07:50:34.625Z,41.20
2023-05-11T07:51:37.582Z,41.07
2023-05-11T07:52:40.893Z,41.77
2023-05-11T07:53:43.546Z,41.61
2023-05-11T07:54:46.860Z,41.34
2023-05-11T07:55:49.375Z,41.52
2023-05-11T07:56:54.197Z,40.47
2023-05-11T07:57:56.723Z,39.95
2023-05-11T07:59:00.379Z,39.77
2023-05-11T08:00:07.220Z,39.70
2023-05-11T08:01:11.774Z,39.39
2023-05-11T08:02:14.684Z,38.37
2023-05-11T08:03:18.060Z,37.46
2023-05-11T08:04:21.358Z,36.92
2023-05-11T08:05:23.892Z,36.71
2023-05-11T08:06:27.245Z,36.13
2023-05-11T08:07:30.272Z,36.98
2023-05-11T08:08:33.638Z,35.73
2023-05-11T08:09:36.979Z,36.10
2023-05-11T08:10:40.078Z,35.78
2023-05-11T08:11:43.361Z,34.78
2023-05-11T08:12:46.048Z,34.43
2023-05-11T08:13:49.328Z,33.97
2023-05-11T08:14:52.691Z,34.05
2023-05-11T08:15:57.401Z,33.91
2023-05-11T08:17:00.910Z,33.86
2023-05-11T08:18:03.904Z,32.54
2023-05-11T08:19:07.723Z,34.06
2023-05-11T08:20:12.174Z,33.82
2023-05-11T08:21:19.696Z,34.16
2023-05-11T08:22:22.124Z,34.08
2023-05-11T08:23:26.043Z,35.05
2023-05-11T08:24:29.549Z,34.31
2023-05-11T08:25:32.019Z,34.51
2023-05-11T08:26:35.390Z,34.13
2023-05-11T08:27:38.747Z,34.71
2023-05-11T08:28:41.414Z,34.44
2023-05-11T08:29:44.869Z,34.36
2023-05-11T08:30:48.206Z,33.92
2023-05-11T08:31:52.865Z,33.97
2023-05-11T08:32:58.978Z,33.79
2023-05-11T08:34:06.379Z,33.41
2023-05-11T08:35:17.441Z,33.35
2023-05-11T08:36:21.482Z,32.38
2023-05-11T08:37:23.980Z,32.14
2023-05-11T08:38:27.344Z,32.99
2023-05-11T08:39:46.009Z,33.58
2023-05-11T08:40:52.515Z,34.25
2023-05-11T08:41:57.320Z,35.91
2023-05-11T08:43:02.268Z,34.77
2023-05-11T08:44:06.513Z,35.28
2023-05-11T08:45:12.393Z,34.84
2023-05-11T08:46:22.922Z,35.40
2023-05-11T08:47:28.396Z,34.53
2023-05-11T08:48:31.782Z,34.88
2023-05-11T08:49:41.507Z,36.49
2023-05-11T08:50:45.047Z,37.26
2023-05-11T08:51:48.833Z,37.54
2023-05-11T08:52:52.357Z,37.72
2023-05-11T08:53:57.065Z,39.73
2023-05-11T08:55:01.182Z,39.15
2023-05-11T08:56:06.890Z,40.73
2023-05-11T08:57:11.426Z,41.25
2023-05-11T08:58:19.560Z,42.05
2023-05-11T08:59:28.518Z,43.28
2023-05-11T09:00:32.324Z,42.12
2023-05-11T09:01:37.290Z,41.48
2023-05-11T09:02:42.054Z,40.84
2023-05-11T09:03:46.783Z,41.20
2023-05-11T09:04:51.171Z,40.08
2023-05-11T09:05:54.715Z,40.10
2023-05-11T09:06:57.862Z,40.03
2023-05-11T09:08:03.406Z,39.97
2023-05-11T09:09:05.885Z,39.26
2023-05-11T09:10:12.905Z,38.92
2023-05-11T09:11:17.635Z,38.63
2023-05-11T09:12:21.637Z,37.52
2023-05-11T09:13:25.792Z,36.61
2023-05-11T09:14:29.850Z,38.04
2023-05-11T09:15:36.876Z,37.99
2023-05-11T09:16:41.477Z,39.82
2023-05-11T09:17:45.400Z,40.45
2023-05-11T09:18:49.777Z,41.77
2023-05-11T09:20:01.115Z,41.96
2023-05-11T09:21:04.586Z,42.48
2023-05-11T09:22:07.199Z,43.33
2023-05-11T09:23:10.620Z,43.79
2023-05-11T09:24:14.350Z,44.51
2023-05-11T09:25:18.312Z,44.67
2023-05-11T09:26:21.782Z,45.30
2023-05-11T09:27:26.879Z,45.95
2023-05-11T09:28:35.964Z,45.39
2023-05-11T09:29:38.660Z,45.36
2023-05-11T09:30:41.923Z,46.50
2023-05-11T09:31:47.328Z,46.28
2023-05-11T09:32:53.557Z,46.80
2023-05-11T09:34:11.034Z,47.55
2023-05-11T09:35:20.259Z,47.92
2023-05-11T09:36:25.617Z,48.21
2023-05-11T09:37:28.929Z,48.67
2023-05-11T09:38:33.648Z,49.64
2023-05-11T09:39:45.355Z,50.05
2023-05-11T09:41:03.382Z,49.71
2023-05-11T09:42:13.294Z,49.18
2023-05-11T09:43:21.602Z,49.57
2023-05-11T09:44:33.829Z,49.90
2023-05-11T09:45:37.898Z,49.71
2023-05-11T09:46:42.652Z,49.49
2023-05-11T09:47:46.406Z,49.89
2023-05-11T09:49:01.703Z,49.95
2023-05-11T09:51:33.718Z,50.26
2023-05-11T09:52:51.330Z,50.98
2023-05-11T09:53:54.827Z,51.28
2023-05-11T09:54:58.360Z,51.32
2023-05-11T09:56:01.341Z,52.01
2023-05-11T09:57:05.380Z,51.97
2023-05-11T09:58:09.237Z,52.65
2023-05-11T09:59:13.486Z,52.52
2023-05-11T10:00:18.066Z,52.88
2023-05-11T10:01:33.001Z,51.77
2023-05-11T10:02:36.415Z,52.22
2023-05-11T10:03:47.081Z,51.73
2023-05-11T10:04:54.391Z,51.81
2023-05-11T10:05:58.925Z,51.74
2023-05-11T10:07:04.865Z,50.87
2023-05-11T10:08:08.594Z,50.53
2023-05-11T10:09:11.784Z,50.75
2023-05-11T10:10:15.330Z,50.58
2023-05-11T10:11:18.843Z,49.65
2023-05-11T10:12:24.390Z,49.50
2023-05-11T10:13:28.121Z,49.34
2023-05-11T10:14:33.394Z,50.50
2023-05-11T10:15:37.977Z,50.53
2023-05-11T10:16:42.941Z,50.90
2023-05-11T10:17:47.111Z,50.04
2023-05-11T10:18:50.758Z,49.18
2023-05-11T10:19:56.979Z,49.29
2023-05-11T10:20:59.823Z,49.36
2023-05-11T10:22:06.335Z,49.26
2023-05-11T10:23:11.694Z,49.63
2023-05-11T10:24:14.827Z,50.83
2023-05-11T10:25:18.814Z,50.58
2023-05-11T10:26:21.828Z,49.63
2023-05-11T10:27:26.331Z,49.63
2023-05-11T10:28:31.148Z,49.24
2023-05-11T10:29:35.428Z,50.10
2023-05-11T10:30:38.107Z,50.09
2023-05-11T10:31:42.257Z,50.17
2023-05-11T10:32:47.933Z,51.10
2023-05-11T10:33:54.002Z,51.78
2023-05-11T10:34:59.047Z,52.59
2023-05-11T10:36:02.369Z,53.43
2023-05-11T10:37:06.660Z,52.29
2023-05-11T10:38:10.500Z,52.06
2023-05-11T10:39:13.980Z,53.54
2023-05-11T10:40:18.384Z,53.57
2023-05-11T10:41:33.936Z,53.31
2023-05-11T10:42:57.379Z,53.63
2023-05-11T10:44:20.751Z,53.56
2023-05-11T10:45:27.736Z,52.87
2023-05-11T10:46:46.054Z,53.42
2023-05-11T10:48:21.454Z,53.99
2023-05-11T10:49:44.800Z,53.71
2023-05-11T10:51:11.111Z,53.91
2023-05-11T10:52:35.712Z,54.39
2023-05-11T10:53:50.730Z,54.14
2023-05-11T10:55:09.910Z,53.86
2023-05-11T10:56:39.597Z,54.59
2023-05-11T10:57:58.934Z,54.63
2023-05-11T10:59:18.461Z,53.79
2023-05-11T11:00:56.018Z,54.57
2023-05-11T11:02:02.263Z,55.46
2023-05-11T11:03:11.489Z,55.69
2023-05-11T11:04:15.753Z,55.89
2023-05-11T11:05:33.847Z,55.14
2023-05-11T11:06:40.536Z,54.26
2023-05-11T11:07:59.467Z,53.69
2023-05-11T11:09:04.549Z,54.29
2023-05-11T11:10:09.267Z,54.18
2023-05-11T11:11:31.080Z,53.87
2023-05-11T11:12:35.842Z,53.55
2023-05-11T11:13:59.385Z,53.61
2023-05-11T11:15:05.236Z,53.62
2023-05-11T11:16:14.465Z,53.47
2023-05-11T11:17:29.179Z,54.24
2023-05-11T11:18:33.688Z,54.10
2023-05-11T11:19:38.480Z,53.21
2023-05-11T11:20:48.893Z,53.55
2023-05-11T11:21:53.880Z,53.78
2023-05-11T11:22:58.323Z,53.59
2023-05-11T11:24:02.385Z,53.95
2023-05-11T11:25:06.927Z,53.36
2023-05-11T11:26:10.520Z,53.35
2023-05-11T11:27:14.830Z,53.02
2023-05-11T11:28:18.354Z,53.74
2023-05-11T11:29:22.173Z,53.36
2023-05-11T11:30:26.000Z,53.40
2023-05-11T11:31:31.765Z,53.81
2023-05-11T11:32:35.435Z,52.55
2023-05-11T11:33:37.925Z,52.61
2023-05-11T11:34:41.422Z,52.85
2023-05-11T11:35:47.369Z,52.34
2023-05-11T11:37:10.071Z,52.47
2023-05-11T11:38:15.083Z,53.24
2023-05-11T11:39:19.772Z,53.56
2023-05-11T11:40:49.396Z,52.93
2023-05-11T11:42:02.777Z,52.96
2023-05-11T11:43:12.709Z,53.15
2023-05-11T11:44:26.354Z,53.65
2023-05-11T11:45:31.291Z,53.68
2023-05-11T11:46:34.705Z,54.10
2023-05-11T11:47:37.980Z,53.44
2023-05-11T11:48:43.349Z,53.24
2023-05-11T11:49:47.227Z,52.59
2023-05-11T11:51:02.725Z,52.18
2023-05-11T11:52:12.835Z,52.42
2023-05-11T11:53:49.711Z,51.92
2023-05-11T11:54:53.102Z,52.04
2023-05-11T11:55:55.577Z,51.99
2023-05-11T11:57:00.044Z,51.26
2023-05-11T11:58:02.554Z,51.05
2023-05-11T11:59:10.794Z,51.12
2023-05-11T12:00:16.544Z,51.95
2023-05-11T12:01:22.496Z,51.65
2023-05-11T12:02:27.622Z,51.82
2023-05-11T12:03:30.514Z,51.40
2023-05-11T12:04:42.633Z,51.92
2023-05-11T12:05:47.230Z,52.10
2023-05-11T12:06:58.554Z,52.24
2023-05-11T12:08:07.920Z,52.22
2023-05-11T12:09:11.180Z,52.28
2023-05-11T12:10:15.689Z,52.52
2023-05-11T12:11:18.289Z,53.05
2023-05-11T12:12:22.339Z,53.04
2023-05-11T12:13:25.495Z,53.90
2023-05-11T12:14:29.302Z,54.06
2023-05-11T12:15:33.315Z,54.46
2023-05-11T12:16:35.798Z,54.82
2023-05-11T12:17:40.868Z,55.48
2023-05-11T12:18:52.589Z,55.42
2023-05-11T12:19:57.244Z,55.96
2023-05-11T12:20:59.661Z,56.02
2023-05-11T12:22:03.369Z,56.26
2023-05-11T12:23:12.601Z,56.72
2023-05-11T12:24:16.402Z,57.07
2023-05-11T12:25:21.840Z,57.16
2023-05-11T12:26:26.581Z,57.38
2023-05-11T12:27:30.231Z,57.83
2023-05-11T12:28:33.316Z,57.73
2023-05-11T12:29:37.807Z,57.90
2023-05-11T12:30:41.528Z,57.98
2023-05-11T12:31:45.414Z,57.80
2023-05-11T12:32:49.168Z,57.96
2023-05-11T12:33:59.547Z,58.20
2023-05-11T12:35:04.857Z,58.50
2023-05-11T12:36:08.657Z,58.81
2023-05-11T12:37:12.731Z,58.78
2023-05-11T12:38:23.055Z,58.96
2023-05-11T12:39:27.218Z,59.25
2023-05-11T12:40:31.826Z,59.11
2023-05-11T12:41:34.438Z,59.10
2023-05-11T12:42:38.276Z,59.34
2023-05-11T12:43:42.420Z,59.07
2023-05-11T12:44:45.798Z,58.91
2023-05-11T12:45:49.204Z,58.92
2023-05-11T12:46:53.153Z,59.19
2023-05-11T12:47:58.584Z,59.03
2023-05-11T12:49:01.455Z,59.27
2023-05-11T12:50:05.719Z,59.54
2023-05-11T12:51:08.513Z,59.36
2023-05-11T12:52:12.496Z,59.01
2023-05-11T12:53:17.557Z,59.01
2023-05-11T12:54:31.299Z,59.26
2023-05-11T12:55:34.723Z,59.45
2023-05-11T12:56:46.332Z,59.74
2023-05-11T12:57:50.948Z,59.38
2023-05-11T12:58:54.426Z,59.50
2023-05-11T13:00:10.182Z,59.53
2023-05-11T13:01:17.776Z,59.55
2023-05-11T13:02:21.256Z,59.27
2023-05-11T13:03:25.705Z,59.70
2023-05-11T13:04:31.543Z,59.60
2023-05-11T13:05:35.305Z,60.06
2023-05-11T13:06:37.678Z,59.63
2023-05-11T13:07:42.092Z,59.71
2023-05-11T13:08:47.874Z,59.72
2023-05-11T13:09:59.430Z,60.00
2023-05-11T13:11:18.547Z,59.96
2023-05-11T13:12:22.194Z,60.17
2023-05-11T13:13:28.891Z,60.31
2023-05-11T13:14:31.846Z,60.07
2023-05-11T13:15:35.585Z,60.52
2023-05-11T13:16:37.992Z,60.54
2023-05-11T13:17:43.200Z,60.33
2023-05-11T13:18:57.230Z,60.46
2023-05-11T13:20:19.434Z,60.60
2023-05-11T13:21:22.751Z,60.09
2023-05-11T13:22:26.870Z,60.54
2023-05-11T13:23:31.870Z,60.45
2023-05-11T13:24:34.950Z,60.78
2023-05-11T13:25:55.135Z,61.11
2023-05-11T13:26:59.045Z,61.49
2023-05-11T13:28:02.888Z,61.66
2023-05-11T13:29:10.645Z,61.48
2023-05-11T13:30:15.521Z,61.74
2023-05-11T13:31:19.402Z,61.66
2023-05-11T13:32:22.942Z,61.28
2023-05-11T13:33:25.594Z,60.95
2023-05-11T13:34:29.062Z,61.04
2023-05-11T13:35:31.526Z,60.76
2023-05-11T13:36:35.035Z,60.57
2023-05-11T13:37:38.734Z,60.55
2023-05-11T13:38:41.298Z,60.26
2023-05-11T13:39:44.647Z,59.98
2023-05-11T13:40:48.022Z,59.52
2023-05-11T13:41:55.057Z,59.74
2023-05-11T13:43:00.848Z,59.44
2023-05-11T13:44:03.830Z,58.97
2023-05-11T13:45:08.235Z,58.72
2023-05-11T13:46:10.680Z,58.58
2023-05-11T13:47:14.166Z,58.38
2023-05-11T13:48:16.866Z,58.38
2023-05-11T13:49:20.209Z,57.83
2023-05-11T13:50:22.792Z,57.53
2023-05-11T13:51:26.550Z,56.85
2023-05-11T13:52:28.975Z,56.60
2023-05-11T13:53:32.367Z,56.48
2023-05-11T13:54:35.880Z,56.16
2023-05-11T13:55:39.313Z,55.79
2023-05-11T13:56:42.984Z,55.61
2023-05-11T13:57:47.874Z,55.11
2023-05-11T13:58:51.706Z,55.61
2023-05-11T13:59:55.104Z,55.71
2023-05-11T14:01:07.582Z,55.93
2023-05-11T14:02:12.199Z,55.49
2023-05-11T14:03:14.746Z,55.47
2023-05-11T14:04:20.053Z,55.56
2023-05-11T14:05:23.438Z,55.47
2023-05-11T14:06:26.525Z,55.22
2023-05-11T14:07:42.885Z,55.22